Time;durP1;ratioP1;P1;durP2;ratioP2;P2;SDS_P1;SDS_P2;PMS_P1;PMS_P2;Temp;Humidity;BMP_temperature;BMP_pressure;BME280_temperature;BME280_humidity;BME280_pressure;Samples;Min_cycle;Max_cycle;Signal;HPM_P1;HPM_P2
2022/02/02 00:00:35;;;;;;;7.77;2.90;;;11.10;67.60;;;;;;5056429;28;20191;-83
2022/02/02 00:03:10;;;;;;;7.37;2.13;;;11.20;67.30;;;;;;5044988;28;20268;-84
2022/02/02 00:08:22;;;;;;;6.87;2.23;;;10.90;73.00;;;;;;5035319;28;20197;-85
2022/02/02 00:13:37;;;;;;;13.73;3.10;;;10.70;77.60;;;;;;5036130;28;20173;-85
2022/02/02 00:23:56;;;;;;;8.57;2.40;;;10.50;81.30;;;;;;5038827;28;20276;-83
2022/02/02 00:26:29;;;;;;;11.73;3.17;;;10.60;81.70;;;;;;5037193;28;20178;-83
2022/02/02 00:29:00;;;;;;;10.93;3.63;;;10.60;82.30;;;;;;5036827;28;20204;-84
2022/02/02 00:31:33;;;;;;;8.67;2.70;;;10.50;83.00;;;;;;5037076;28;20173;-85
2022/02/02 00:34:04;;;;;;;10.93;2.80;;;10.50;84.00;;;;;;5036395;28;20173;-87
2022/02/02 00:36:45;;;;;;;9.70;2.83;;;10.40;84.10;;;;;;5036080;28;20201;-86
2022/02/02 00:39:11;;;;;;;7.80;2.87;;;10.30;85.60;;;;;;5035435;28;20614;-84
2022/02/02 00:41:36;;;;;;;10.87;2.73;;;10.30;87.40;;;;;;5036722;28;20176;-85
2022/02/02 00:44:03;;;;;;;14.63;2.67;;;10.30;87.30;;;;;;5036446;28;20247;-85
2022/02/02 00:46:29;;;;;;;10.63;2.93;;;10.30;87.30;;;;;;5037338;28;20721;-85
2022/02/02 00:49:00;;;;;;;8.00;2.63;;;10.30;86.70;;;;;;5036568;28;20204;-85
2022/02/02 00:51:53;;;;;;;10.17;2.90;;;10.20;87.00;;;;;;5036651;28;20586;-85
2022/02/02 00:54:21;;;;;;;10.63;2.90;;;10.30;87.40;;;;;;5037422;28;20157;-85
2022/02/02 00:56:48;;;;;;;10.10;3.30;;;10.20;87.50;;;;;;5036941;28;20181;-83
2022/02/02 00:59:15;;;;;;;12.00;3.23;;;10.30;87.60;;;;;;5038244;28;20335;-83
2022/02/02 01:01:40;;;;;;;12.67;3.67;;;10.30;87.70;;;;;;5044372;28;20216;-85
2022/02/02 01:04:06;;;;;;;10.43;3.00;;;10.30;87.20;;;;;;5052810;28;20594;-85
2022/02/02 01:06:37;;;;;;;15.37;3.20;;;10.30;87.30;;;;;;5038342;28;20225;-85
2022/02/02 01:11:48;;;;;;;9.43;2.43;;;10.40;87.90;;;;;;5038142;28;20173;-85
2022/02/02 01:27:47;;;;;;;12.20;3.17;;;10.20;90.30;;;;;;5037165;28;20181;-85
2022/02/02 01:27:55;;;;;;;12.13;3.17;;;10.10;90.90;;;;;;5048583;28;20188;-83
2022/02/02 01:30:23;;;;;;;13.90;4.17;;;10.20;91.20;;;;;;5058633;28;20273;-84
2022/02/02 01:32:53;;;;;;;6.00;2.43;;;10.20;91.70;;;;;;5037696;28;20181;-85
2022/02/02 01:35:19;;;;;;;11.80;3.20;;;10.20;91.80;;;;;;5037426;28;20634;-85
2022/02/02 01:37:48;;;;;;;9.77;3.00;;;10.20;92.10;;;;;;5035626;28;20272;-84
2022/02/02 01:40:27;;;;;;;13.17;3.70;;;10.20;92.00;;;;;;5035110;28;20181;-86
2022/02/02 01:43:01;;;;;;;12.77;3.47;;;10.20;92.00;;;;;;5034700;28;20177;-84
2022/02/02 01:45:41;;;;;;;9.67;3.47;;;10.20;92.00;;;;;;5034783;28;20168;-84
2022/02/02 01:50:55;;;;;;;11.97;3.33;;;10.20;92.20;;;;;;5045503;28;20240;-84
2022/02/02 01:55:50;;;;;;;12.83;3.67;;;10.10;92.40;;;;;;5056596;28;20185;-84
2022/02/02 02:01:07;;;;;;;12.60;3.83;;;10.30;92.20;;;;;;5059598;28;20161;-83
2022/02/02 02:03:50;;;;;;;12.23;3.47;;;10.30;91.90;;;;;;5057905;28;20157;-84
2022/02/02 02:06:26;;;;;;;9.43;2.63;;;10.30;91.80;;;;;;5035131;28;20169;-84
2022/02/02 02:08:54;;;;;;;9.80;3.50;;;10.30;91.90;;;;;;5035240;28;20198;-86
2022/02/02 02:11:21;;;;;;;9.77;2.97;;;10.30;91.80;;;;;;5038216;28;20268;-85
2022/02/02 02:16:23;;;;;;;10.57;2.80;;;10.30;92.20;;;;;;5043213;28;20177;-82
2022/02/02 02:18:48;;;;;;;8.67;2.77;;;10.30;92.30;;;;;;5059004;28;20173;-82
2022/02/02 02:21:17;;;;;;;7.07;2.53;;;10.30;92.50;;;;;;5058349;28;20166;-83
2022/02/02 02:23:44;;;;;;;12.30;3.47;;;10.30;92.80;;;;;;5058295;28;20196;-84
2022/02/02 02:26:11;;;;;;;8.50;2.80;;;10.30;93.00;;;;;;5038881;28;20173;-84
2022/02/02 02:28:53;;;;;;;10.70;3.30;;;10.20;93.10;;;;;;5036605;28;20169;-85
2022/02/02 02:58:47;;;;;;;7.07;2.60;;;10.30;93.50;;;;;;5000742;28;20206;-86
2022/02/02 03:01:29;;;;;;;7.07;3.30;;;10.30;93.40;;;;;;5029486;28;20221;-86
2022/02/02 03:31:39;;;;;;;8.63;2.90;;;10.40;93.70;;;;;;5037253;28;20236;-84
2022/02/02 03:59:01;;;;;;;8.77;3.17;;;10.10;94.70;;;;;;5038924;28;20232;-85
2022/02/02 04:06:39;;;;;;;9.90;3.10;;;9.90;95.50;;;;;;5039656;28;20614;-85
2022/02/02 04:09:05;;;;;;;9.57;3.20;;;9.90;95.50;;;;;;5037328;28;20189;-84
2022/02/02 04:11:39;;;;;;;12.77;3.20;;;10.00;95.70;;;;;;5036175;28;20185;-86
2022/02/02 05:51:10;;;;;;;8.10;2.67;;;10.20;97.30;;;;;;5037528;28;20198;-86
2022/02/02 05:53:36;;;;;;;11.43;3.00;;;10.20;97.50;;;;;;5036178;28;20170;-84
2022/02/02 05:56:05;;;;;;;5.23;2.73;;;10.20;97.50;;;;;;5037780;28;20184;-84
2022/02/02 05:58:34;;;;;;;6.93;3.00;;;10.20;97.40;;;;;;5036451;28;20178;-85
2022/02/02 06:01:01;;;;;;;8.60;2.20;;;10.20;97.30;;;;;;5035797;28;20174;-85
2022/02/02 06:03:50;;;;;;;7.33;2.90;;;10.10;97.20;;;;;;5035425;28;20181;-86
2022/02/02 06:06:16;;;;;;;5.17;2.20;;;10.10;97.80;;;;;;5029494;28;20171;-86
2022/02/02 06:08:45;;;;;;;10.93;2.87;;;10.00;97.50;;;;;;5035784;28;20178;-85
2022/02/02 06:11:15;;;;;;;7.17;2.33;;;10.10;97.60;;;;;;5034278;28;20240;-85
2022/02/02 06:13:49;;;;;;;7.47;2.67;;;10.10;97.40;;;;;;5036648;28;20188;-85
2022/02/02 06:16:16;;;;;;;9.77;2.20;;;10.10;97.30;;;;;;5037042;28;20182;-86
2022/02/02 06:18:45;;;;;;;9.37;3.20;;;10.10;97.10;;;;;;5037625;28;20265;-84
2022/02/02 06:21:10;;;;;;;7.37;2.47;;;10.20;97.10;;;;;;5037813;28;20170;-84
2022/02/02 06:23:57;;;;;;;12.90;2.73;;;10.40;96.70;;;;;;5037140;28;20550;-85
2022/02/02 06:26:25;;;;;;;8.17;2.73;;;10.20;96.50;;;;;;5037834;28;20170;-84
2022/02/02 06:28:55;;;;;;;6.10;2.33;;;10.20;96.40;;;;;;5038768;28;20301;-86
2022/02/02 06:31:29;;;;;;;7.33;2.20;;;10.20;96.20;;;;;;5051375;28;20181;-85
2022/02/02 06:33:59;;;;;;;6.80;2.53;;;10.20;96.20;;;;;;5028374;28;20268;-86
2022/02/02 06:36:29;;;;;;;10.20;2.73;;;10.30;95.90;;;;;;5041353;28;20212;-84
2022/02/02 06:39:04;;;;;;;8.33;2.73;;;10.20;96.00;;;;;;5038873;28;20241;-84
2022/02/02 06:41:31;;;;;;;8.50;2.73;;;10.30;95.90;;;;;;5046388;28;20267;-85
2022/02/02 06:43:57;;;;;;;7.23;2.83;;;10.30;95.60;;;;;;5043726;28;20200;-83
2022/02/02 06:46:28;;;;;;;8.73;2.80;;;10.30;95.30;;;;;;5035123;28;20675;-85
2022/02/02 06:48:54;;;;;;;7.60;2.90;;;10.40;95.50;;;;;;5035284;28;20174;-84
2022/02/02 06:51:32;;;;;;;12.37;2.80;;;10.40;95.40;;;;;;5036122;28;20185;-85
2022/02/02 06:54:05;;;;;;;8.37;2.77;;;10.40;95.70;;;;;;5034932;28;20173;-85
2022/02/02 06:56:48;;;;;;;6.67;2.77;;;10.40;95.60;;;;;;5035356;28;20188;-85
2022/02/02 07:05:06;;;;;;;7.00;2.63;;;10.40;96.20;;;;;;5051874;28;20513;-83
2022/02/02 07:13:09;;;;;;;8.93;2.73;;;10.30;96.80;;;;;;5041819;28;20178;-83
2022/02/02 07:28:38;;;;;;;9.20;3.50;;;10.40;97.70;;;;;;5038258;28;20205;-85
2022/02/02 07:31:34;;;;;;;10.83;3.40;;;10.40;97.70;;;;;;5039032;28;20204;-86
2022/02/02 07:34:26;;;;;;;9.40;3.63;;;10.40;97.80;;;;;;5038789;28;20692;-88
2022/02/02 07:36:57;;;;;;;8.23;3.20;;;10.50;97.80;;;;;;5040705;28;20197;-84
2022/02/02 07:39:25;;;;;;;11.23;3.73;;;10.40;97.70;;;;;;5038894;28;20247;-84
2022/02/02 07:41:57;;;;;;;9.87;3.00;;;10.50;97.50;;;;;;5039238;28;20181;-88
2022/02/02 07:44:28;;;;;;;12.33;3.90;;;10.50;97.80;;;;;;5052719;28;20244;-86
2022/02/02 07:46:59;;;;;;;8.47;2.97;;;10.50;97.90;;;;;;5018965;28;20170;-84
2022/02/02 07:49:32;;;;;;;7.33;3.13;;;10.40;98.00;;;;;;5037555;28;20208;-87
2022/02/02 07:51:58;;;;;;;11.00;3.60;;;10.40;98.40;;;;;;5039424;28;20174;-85
2022/02/02 07:54:35;;;;;;;9.50;3.40;;;10.40;98.60;;;;;;5034397;28;20630;-85
2022/02/02 07:57:10;;;;;;;11.17;2.93;;;10.50;98.40;;;;;;5034683;28;20197;-86
2022/02/02 07:59:55;;;;;;;8.17;2.97;;;10.50;97.90;;;;;;5037159;28;20181;-88
2022/02/02 08:02:29;;;;;;;10.03;3.00;;;10.40;98.70;;;;;;5037901;28;20180;-86
2022/02/02 08:04:55;;;;;;;11.03;3.00;;;10.20;99.10;;;;;;5046241;28;20182;-85
2022/02/02 08:07:26;;;;;;;10.83;3.03;;;10.30;99.20;;;;;;5050604;28;20272;-85
2022/02/02 08:10:06;;;;;;;13.00;3.37;;;10.40;99.00;;;;;;5051739;28;20201;-86
2022/02/02 08:12:43;;;;;;;10.07;3.13;;;10.40;98.90;;;;;;5060837;28;20175;-83
2022/02/02 08:15:10;;;;;;;10.10;3.50;;;10.50;98.60;;;;;;5068178;28;20169;-84
2022/02/02 08:17:36;;;;;;;9.30;3.10;;;10.40;98.70;;;;;;5048605;28;20176;-87
2022/02/02 08:20:02;;;;;;;10.90;3.23;;;10.50;98.60;;;;;;5044991;28;20181;-85
2022/02/02 08:22:29;;;;;;;9.30;3.27;;;10.40;98.50;;;;;;5040671;28;20540;-84
2022/02/02 08:24:57;;;;;;;7.70;2.60;;;10.40;98.70;;;;;;5021045;28;20189;-83
2022/02/02 08:27:28;;;;;;;9.50;3.20;;;10.40;98.60;;;;;;5022392;28;20193;-84
2022/02/02 08:29:54;;;;;;;9.53;2.90;;;10.40;98.90;;;;;;5037662;28;20255;-86
2022/02/02 08:32:20;;;;;;;9.80;3.20;;;10.30;99.10;;;;;;5020130;28;20178;-86
2022/02/02 08:34:49;;;;;;;9.50;3.03;;;10.40;98.90;;;;;;5022566;28;20365;-85
2022/02/02 08:37:15;;;;;;;8.90;3.27;;;10.50;99.10;;;;;;5025034;28;20182;-89
2022/02/02 08:40:21;;;;;;;10.97;3.00;;;10.60;99.00;;;;;;5032828;28;20169;-87
2022/02/02 08:42:33;;;;;;;12.00;3.43;;;10.50;99.20;;;;;;5042806;28;20191;-86
2022/02/02 08:45:16;;;;;;;10.77;2.93;;;10.70;99.50;;;;;;5059593;28;20174;-87
2022/02/02 08:47:59;;;;;;;7.33;2.87;;;10.50;99.40;;;;;;5042478;28;20182;-84
2022/02/02 08:50:42;;;;;;;10.23;3.47;;;10.50;99.20;;;;;;5041837;28;20231;-83
2022/02/02 09:00:54;;;;;;;13.10;3.40;;;10.40;99.90;;;;;;5053299;28;20234;-86
2022/02/02 09:06:18;;;;;;;9.03;3.50;;;10.30;99.90;;;;;;5056596;28;20169;-90
2022/02/02 09:08:58;;;;;;;8.33;3.77;;;10.20;99.90;;;;;;5032962;28;20181;-81
2022/02/02 09:20:01;;;;;;;11.60;4.13;;;10.50;99.90;;;;;;5042040;28;20180;-86
2022/02/02 09:25:23;;;;;;;11.03;4.57;;;10.60;99.90;;;;;;5014601;28;20173;-89
2022/02/02 09:36:41;;;;;;;13.17;4.20;;;10.50;99.90;;;;;;5041431;28;20847;-84
2022/02/02 09:39:17;;;;;;;9.20;4.13;;;10.50;99.90;;;;;;5022973;28;20182;-87
2022/02/02 09:41:47;;;;;;;13.03;4.27;;;10.50;99.90;;;;;;5045581;28;20173;-87
2022/02/02 09:44:18;;;;;;;11.90;5.33;;;10.60;99.90;;;;;;5040077;28;20193;-86
2022/02/02 09:47:21;;;;;;;12.20;4.30;;;10.50;99.90;;;;;;5053695;28;20174;-89
2022/02/02 09:52:21;;;;;;;11.70;4.27;;;10.50;99.90;;;;;;5045697;28;20212;-87
2022/02/02 10:00:32;;;;;;;9.27;4.30;;;10.40;99.90;;;;;;5043748;28;20208;-87
2022/02/02 10:03:11;;;;;;;11.53;3.97;;;10.30;99.90;;;;;;5041340;28;20549;-90
2022/02/02 10:05:49;;;;;;;9.97;4.10;;;10.20;99.90;;;;;;5027871;28;20182;-89
2022/02/02 10:11:35;;;;;;;8.53;3.47;;;10.20;99.90;;;;;;5039395;28;20288;-88
2022/02/02 10:14:35;;;;;;;10.10;3.97;;;10.20;99.90;;;;;;5023426;28;20173;-86
2022/02/02 10:16:54;;;;;;;11.70;3.70;;;10.30;99.90;;;;;;5045375;28;20276;-86
2022/02/02 10:19:32;;;;;;;8.07;2.97;;;10.10;99.90;;;;;;5054960;28;20170;-87
2022/02/02 10:22:28;;;;;;;9.07;3.23;;;10.00;99.90;;;;;;5049440;28;20173;-86
2022/02/02 10:24:59;;;;;;;13.33;3.77;;;10.00;99.90;;;;;;5021445;28;20165;-86
2022/02/02 10:27:38;;;;;;;11.50;3.53;;;10.10;99.90;;;;;;5020944;28;20170;-86
2022/02/02 10:30:14;;;;;;;8.30;3.47;;;10.30;99.90;;;;;;5019754;28;20225;-87
2022/02/02 10:32:51;;;;;;;9.47;3.00;;;10.20;99.90;;;;;;5037338;28;20181;-89
2022/02/02 10:35:29;;;;;;;9.43;2.60;;;10.10;99.90;;;;;;5020750;28;20208;-86
2022/02/02 10:37:59;;;;;;;8.10;4.17;;;10.10;99.90;;;;;;5020478;28;20593;-86
2022/02/02 10:40:44;;;;;;;10.30;4.10;;;10.20;99.90;;;;;;5031788;28;20658;-84
2022/02/02 10:43:35;;;;;;;7.30;3.00;;;10.30;99.90;;;;;;5036195;28;20169;-89
2022/02/02 10:46:21;;;;;;;7.07;3.00;;;10.40;99.90;;;;;;5036989;28;20265;-86
2022/02/02 10:49:09;;;;;;;5.67;2.93;;;10.50;99.90;;;;;;5034387;28;20633;-87
2022/02/02 10:54:18;;;;;;;16.97;9.40;;;10.70;99.90;;;;;;5015930;28;20221;-88
2022/02/02 10:56:50;;;;;;;18.43;12.27;;;10.70;99.90;;;;;;5017540;28;20178;-86
2022/02/02 11:07:09;;;;;;;4.67;3.50;;;10.80;99.90;;;;;;5018429;28;20176;-87
2022/02/02 11:09:38;;;;;;;8.10;3.73;;;10.70;99.90;;;;;;5023080;28;20202;-86
2022/02/02 11:12:07;;;;;;;10.40;6.80;;;10.80;99.90;;;;;;5038637;28;20186;-88
2022/02/02 11:14:47;;;;;;;6.80;4.80;;;10.80;99.90;;;;;;5025100;28;20178;-87
2022/02/02 11:17:26;;;;;;;4.47;2.77;;;10.90;99.90;;;;;;5043476;28;20375;-85
2022/02/02 11:20:04;;;;;;;5.00;3.10;;;10.90;99.90;;;;;;5051611;28;20275;-86
2022/02/02 11:22:33;;;;;;;4.80;3.37;;;10.90;99.90;;;;;;5050554;28;20173;-88
2022/02/02 11:25:04;;;;;;;5.10;3.37;;;11.00;99.90;;;;;;5046743;28;20173;-87
2022/02/02 11:27:36;;;;;;;4.37;2.97;;;11.00;99.90;;;;;;5035747;28;20177;-89
2022/02/02 11:30:22;;;;;;;7.23;6.00;;;11.10;99.90;;;;;;5033230;28;20678;-88
2022/02/02 11:33:00;;;;;;;4.90;2.87;;;11.10;99.90;;;;;;5029440;28;20193;-88
2022/02/02 11:36:02;;;;;;;5.27;3.80;;;11.00;99.90;;;;;;5015564;28;20213;-87
2022/02/02 11:38:28;;;;;;;5.53;3.70;;;11.20;99.90;;;;;;5020195;28;20186;-87
2022/02/02 11:41:27;;;;;;;6.53;4.63;;;11.10;99.90;;;;;;5033254;28;20657;-86
2022/02/02 11:44:09;;;;;;;4.00;2.63;;;11.10;99.90;;;;;;5035287;28;20264;-88
2022/02/02 11:49:57;;;;;;;4.47;3.43;;;11.20;99.90;;;;;;5020096;28;20236;-88
2022/02/02 11:52:39;;;;;;;4.60;3.00;;;11.30;99.90;;;;;;5051074;28;20178;-88
2022/02/02 11:55:18;;;;;;;6.40;4.70;;;11.50;99.90;;;;;;5042577;28;20263;-90
2022/02/02 11:58:14;;;;;;;16.63;9.10;;;11.50;99.90;;;;;;5034900;28;20174;-89
2022/02/02 12:01:04;;;;;;;38.23;17.53;;;11.60;99.90;;;;;;5035151;28;20187;-88
2022/02/02 12:06:54;;;;;;;32.10;23.33;;;11.60;99.90;;;;;;5020299;28;20178;-86
2022/02/02 12:09:47;;;;;;;9.80;7.50;;;11.60;99.90;;;;;;5022879;28;20205;-85
2022/02/02 12:50:27;;;;;;;12.83;9.67;;;10.50;99.90;;;;;;5035883;28;20205;-85
2022/02/02 12:56:17;;;;;;;10.60;9.17;;;10.40;99.90;;;;;;5044851;28;20185;-86
2022/02/02 12:58:50;;;;;;;10.53;9.23;;;10.50;99.90;;;;;;5042924;28;20713;-86
2022/02/02 13:01:21;;;;;;;10.40;9.00;;;10.50;99.90;;;;;;5037471;28;20177;-85
2022/02/02 13:03:48;;;;;;;12.17;10.00;;;10.60;99.90;;;;;;5038579;28;20671;-86
2022/02/02 13:06:18;;;;;;;12.33;10.23;;;10.70;99.90;;;;;;5037943;28;20185;-87
2022/02/02 13:08:47;;;;;;;12.83;11.47;;;10.80;99.90;;;;;;5038932;28;20239;-86
2022/02/02 13:11:12;;;;;;;10.53;9.23;;;11.00;99.90;;;;;;5045480;28;20422;-87
2022/02/02 13:13:45;;;;;;;11.47;10.30;;;11.00;99.90;;;;;;5057459;28;20166;-86
2022/02/02 13:16:16;;;;;;;11.33;9.80;;;11.00;99.90;;;;;;5056642;28;20239;-87
2022/02/02 13:18:45;;;;;;;9.40;8.27;;;11.00;99.90;;;;;;5056197;28;20169;-88
2022/02/02 13:21:33;;;;;;;9.10;8.20;;;11.00;99.90;;;;;;5056911;28;20161;-87
2022/02/02 13:27:03;;;;;;;14.37;9.67;;;11.00;99.90;;;;;;5154393;22;20219;-87
2022/02/02 13:29:45;;;;;;;7.87;6.60;;;11.00;99.90;;;;;;5029749;28;20225;-88
2022/02/02 13:35:18;;;;;;;9.30;7.40;;;10.90;99.90;;;;;;5066053;28;20188;-89
2022/02/02 13:38:08;;;;;;;9.53;8.17;;;10.90;99.90;;;;;;5048665;28;20244;-87
2022/02/02 13:43:49;;;;;;;10.37;8.03;;;10.90;99.90;;;;;;5039548;28;20208;-88
2022/02/02 13:49:13;;;;;;;14.60;10.23;;;11.10;99.90;;;;;;5052322;28;20611;-88
2022/02/02 13:55:06;;;;;;;9.37;6.90;;;11.10;99.90;;;;;;5008796;28;20237;-87
2022/02/02 13:58:07;;;;;;;8.17;6.87;;;11.10;99.90;;;;;;5067979;28;20169;-86
2022/02/02 14:00:51;;;;;;;8.60;7.00;;;10.90;99.90;;;;;;5045984;28;20182;-86
2022/02/02 14:09:16;;;;;;;9.50;7.83;;;10.80;99.90;;;;;;5042606;28;20174;-87
2022/02/02 14:31:09;;;;;;;9.13;7.53;;;11.30;99.90;;;;;;5046710;28;20263;-86
2022/02/02 14:33:38;;;;;;;10.13;7.40;;;11.30;99.90;;;;;;5026995;28;20179;-86
2022/02/02 14:36:07;;;;;;;8.27;7.37;;;11.40;99.90;;;;;;5038808;28;20181;-87
2022/02/02 14:39:00;;;;;;;10.90;8.07;;;11.40;99.90;;;;;;5031091;28;20166;-88
2022/02/02 14:44:26;;;;;;;9.33;6.83;;;11.40;99.90;;;;;;5046730;28;20157;-88
2022/02/02 14:49:49;;;;;;;11.90;7.83;;;11.10;99.90;;;;;;5045773;28;20177;-86
2022/02/02 14:53:21;;;;;;;9.97;7.07;;;11.20;99.90;;;;;;4921811;27;5077590;-87
2022/02/02 14:56:12;;;;;;;8.50;7.33;;;11.20;99.90;;;;;;5108450;28;20190;-86
2022/02/02 15:09:52;;;;;;;10.33;8.30;;;11.40;99.90;;;;;;5080802;28;20207;-86
2022/02/02 15:29:20;;;;;;;9.33;8.40;;;11.20;99.90;;;;;;5016482;28;20178;-85
2022/02/02 15:40:06;;;;;;;9.03;7.57;;;11.00;99.90;;;;;;5015827;23;20222;-87
2022/02/02 16:02:10;;;;;;;10.07;8.93;;;10.80;99.90;;;;;;5020325;28;20186;-86
2022/02/02 16:04:44;;;;;;;10.43;9.33;;;10.70;99.90;;;;;;5008213;28;20166;-87
2022/02/02 16:07:40;;;;;;;12.17;10.33;;;10.70;99.90;;;;;;5013306;28;20195;-87
2022/02/02 16:13:26;;;;;;;12.20;10.10;;;10.60;99.90;;;;;;5039391;23;20621;-87
2022/02/02 16:16:02;;;;;;;15.40;11.33;;;10.70;99.90;;;;;;4989594;28;20546;-85
2022/02/02 16:18:48;;;;;;;13.00;10.90;;;10.70;99.90;;;;;;4993815;28;20203;-85
2022/02/02 16:33:48;;;;;;;13.17;11.23;;;10.60;99.90;;;;;;5015664;28;20206;-85
2022/02/02 16:38:27;;;;;;;13.73;11.47;;;10.50;99.90;;;;;;5007345;28;20185;-87
2022/02/02 16:40:53;;;;;;;15.43;12.00;;;10.60;99.90;;;;;;5014960;28;20195;-87
2022/02/02 16:43:22;;;;;;;16.07;12.60;;;10.60;99.90;;;;;;5008462;28;20187;-88
2022/02/02 16:45:52;;;;;;;15.83;12.80;;;10.60;99.90;;;;;;5012990;28;20190;-89
2022/02/02 16:48:20;;;;;;;14.83;12.20;;;10.60;99.90;;;;;;4999615;28;20156;-86
2022/02/02 16:50:52;;;;;;;17.13;12.87;;;10.60;99.90;;;;;;5013311;28;20199;-87
2022/02/02 17:31:11;;;;;;;17.40;15.40;;;10.70;99.90;;;;;;5010010;28;20211;-88
2022/02/02 17:33:54;;;;;;;19.20;16.00;;;10.70;99.90;;;;;;5009349;28;20202;-85
2022/02/02 17:36:32;;;;;;;20.30;16.97;;;10.70;99.90;;;;;;5010358;28;20198;-88
2022/02/02 17:39:12;;;;;;;18.40;16.50;;;10.60;99.90;;;;;;4992978;28;20174;-88
2022/02/02 17:42:03;;;;;;;18.67;16.03;;;10.60;99.90;;;;;;4989931;28;20175;-87
2022/02/02 17:44:56;;;;;;;18.53;15.97;;;10.50;99.90;;;;;;4995097;28;20182;-88
2022/02/02 18:19:55;;;;;;;14.20;12.70;;;10.60;99.90;;;;;;4985930;28;20179;-86
2022/02/02 18:22:27;;;;;;;14.30;12.80;;;10.70;99.90;;;;;;4988589;28;20181;-89
2022/02/02 18:25:08;;;;;;;13.97;11.30;;;10.70;99.90;;;;;;4992471;28;20227;-90
2022/02/02 18:27:45;;;;;;;13.90;12.50;;;10.70;99.90;;;;;;5003179;28;20202;-88
2022/02/02 18:33:19;;;;;;;14.10;12.67;;;10.70;99.90;;;;;;5011148;28;20193;-90
2022/02/02 18:36:01;;;;;;;13.60;11.53;;;10.60;99.90;;;;;;5010510;28;20166;-86
2022/02/02 19:05:33;;;;;;;12.20;10.90;;;10.50;99.90;;;;;;5005352;28;20186;-88
2022/02/02 19:14:39;;;;;;;14.03;11.73;;;10.50;99.90;;;;;;5019650;28;20221;-88
2022/02/02 19:56:42;;;;;;;17.57;14.93;;;10.60;99.90;;;;;;5019540;28;20163;-87
2022/02/02 20:06:59;;;;;;;21.70;17.33;;;10.40;99.90;;;;;;5008947;28;20167;-87
2022/02/02 20:09:51;;;;;;;20.50;17.77;;;10.40;99.90;;;;;;5015478;28;20194;-88
2022/02/02 20:12:13;;;;;;;22.17;17.30;;;10.30;99.90;;;;;;5010775;28;20210;-85
2022/02/02 20:14:41;;;;;;;23.23;18.30;;;10.50;99.90;;;;;;5012863;28;20163;-89
2022/02/02 20:17:15;;;;;;;21.07;18.27;;;10.30;99.90;;;;;;5017716;28;20167;-86
2022/02/02 20:19:45;;;;;;;23.17;20.20;;;10.20;99.90;;;;;;5019641;28;20177;-86
2022/02/02 20:22:19;;;;;;;24.07;20.47;;;10.20;99.90;;;;;;5035247;28;20198;-85
2022/02/02 20:25:01;;;;;;;23.30;20.63;;;10.20;99.90;;;;;;5002121;28;20163;-90
2022/02/02 20:27:37;;;;;;;24.33;21.13;;;10.30;99.90;;;;;;4987806;28;20175;-88
2022/02/02 20:30:18;;;;;;;27.00;22.77;;;10.20;99.90;;;;;;5004084;28;20221;-91
2022/02/02 20:32:45;;;;;;;26.90;22.67;;;10.20;99.90;;;;;;4991961;28;20210;-90
2022/02/02 20:35:14;;;;;;;28.73;22.27;;;10.20;99.90;;;;;;5003813;28;20342;-91
2022/02/02 20:37:41;;;;;;;28.60;24.37;;;10.40;99.90;;;;;;4993240;28;20187;-88
2022/02/02 20:40:08;;;;;;;29.47;23.73;;;10.30;99.90;;;;;;5010342;28;20151;-88
2022/02/02 20:42:53;;;;;;;28.10;23.93;;;10.20;99.90;;;;;;5011852;28;20183;-92
2022/02/02 21:02:53;;;;;;;31.27;24.73;;;10.40;99.90;;;;;;5005556;28;20213;-89
2022/02/02 21:17:36;;;;;;;30.17;23.03;;;10.20;99.90;;;;;;5020920;28;20189;-93
2022/02/02 21:20:29;;;;;;;31.90;23.73;;;10.20;99.90;;;;;;5008566;28;20562;-91
2022/02/02 21:23:11;;;;;;;31.20;24.23;;;10.20;99.90;;;;;;5004088;28;20282;-89
2022/02/02 21:25:47;;;;;;;30.20;24.37;;;10.20;99.90;;;;;;5017718;28;20241;-89
2022/02/02 21:28:17;;;;;;;32.23;25.37;;;10.20;99.90;;;;;;5015391;28;20209;-89
2022/02/02 21:30:43;;;;;;;31.87;24.60;;;10.20;99.90;;;;;;5018194;28;20206;-87
2022/02/02 21:33:14;;;;;;;33.20;24.83;;;10.20;99.90;;;;;;5014459;28;20183;-89
2022/02/02 21:35:49;;;;;;;29.77;23.37;;;10.10;99.90;;;;;;5003426;28;20209;-89
2022/02/02 21:41:17;;;;;;;31.70;24.97;;;10.00;99.90;;;;;;4999049;28;20257;-90
2022/02/02 21:43:43;;;;;;;31.73;24.63;;;10.10;99.90;;;;;;5001135;28;20179;-92
2022/02/02 21:46:09;;;;;;;28.70;23.90;;;10.20;99.90;;;;;;5008287;28;20183;-88
2022/02/02 21:48:35;;;;;;;32.90;24.27;;;10.30;99.90;;;;;;5003396;28;20255;-88
2022/02/02 21:51:07;;;;;;;31.13;23.53;;;10.10;99.90;;;;;;5013216;28;20207;-90
2022/02/02 21:53:33;;;;;;;26.87;23.20;;;10.00;99.90;;;;;;5005242;28;20198;-84
2022/02/02 21:56:01;;;;;;;29.87;23.33;;;10.10;99.90;;;;;;4994159;28;20179;-90
2022/02/02 21:58:26;;;;;;;29.53;22.73;;;10.20;99.90;;;;;;5011575;28;20294;-90
2022/02/02 22:00:52;;;;;;;26.83;21.33;;;10.10;99.90;;;;;;5016681;28;20723;-89
2022/02/02 22:03:18;;;;;;;30.53;22.90;;;10.00;99.90;;;;;;4998465;28;20194;-90
2022/02/02 22:05:44;;;;;;;34.20;22.23;;;10.00;99.90;;;;;;4999471;28;20183;-89
2022/02/02 22:08:10;;;;;;;28.37;21.57;;;10.00;99.90;;;;;;4995398;28;20210;-90
2022/02/02 22:10:40;;;;;;;30.80;22.00;;;10.20;99.90;;;;;;4997783;28;20857;-92
2022/02/02 22:13:06;;;;;;;24.53;20.77;;;10.10;99.90;;;;;;4999912;28;20280;-90
2022/02/02 22:15:40;;;;;;;25.37;19.80;;;10.10;99.90;;;;;;4982076;28;20188;-87
2022/02/02 22:18:05;;;;;;;27.17;19.83;;;10.00;99.90;;;;;;4979286;28;20184;-90
2022/02/02 22:20:33;;;;;;;27.33;18.67;;;10.00;99.90;;;;;;4980370;28;20176;-89
2022/02/02 22:22:58;;;;;;;22.50;17.23;;;10.10;99.90;;;;;;4980396;28;20196;-90
2022/02/02 22:25:26;;;;;;;24.73;17.40;;;10.10;99.90;;;;;;4980538;28;20175;-90
2022/02/02 22:27:53;;;;;;;22.90;15.97;;;10.10;99.90;;;;;;4992311;28;20301;-90
2022/02/02 22:30:19;;;;;;;22.73;15.27;;;10.10;99.90;;;;;;5001079;28;20174;-88
2022/02/02 22:32:44;;;;;;;20.47;14.70;;;10.00;99.90;;;;;;5000908;28;20171;-91
2022/02/02 22:35:10;;;;;;;19.63;13.80;;;10.00;99.90;;;;;;5001239;28;20592;-88
2022/02/02 22:37:36;;;;;;;22.67;14.50;;;10.10;99.90;;;;;;5001536;28;20269;-89
2022/02/02 22:40:03;;;;;;;19.27;13.80;;;10.00;99.90;;;;;;4998462;28;20277;-90
2022/02/02 22:42:31;;;;;;;17.43;12.47;;;10.00;99.90;;;;;;5009352;28;20172;-88
2022/02/02 22:45:01;;;;;;;18.07;13.17;;;10.00;99.90;;;;;;5017283;28;20202;-89
2022/02/02 22:47:46;;;;;;;15.17;12.27;;;10.00;99.90;;;;;;4998400;28;20182;-90
2022/02/02 22:50:14;;;;;;;15.43;12.33;;;9.90;99.90;;;;;;4997118;28;20206;-89
2022/02/02 22:52:42;;;;;;;15.70;11.20;;;9.90;99.90;;;;;;5000268;28;20223;-89
2022/02/02 22:55:12;;;;;;;18.03;11.90;;;9.90;99.90;;;;;;4998707;28;20175;-91
2022/02/02 22:57:38;;;;;;;19.97;11.10;;;9.90;99.90;;;;;;5000213;28;20190;-89
2022/02/02 23:00:14;;;;;;;14.67;11.67;;;9.90;99.90;;;;;;4998740;28;20155;-91
2022/02/02 23:02:58;;;;;;;14.20;10.67;;;9.90;99.90;;;;;;4999941;28;20207;-89
2022/02/02 23:05:35;;;;;;;17.30;11.27;;;9.90;99.90;;;;;;4998330;28;20186;-87
2022/02/02 23:08:03;;;;;;;15.27;10.33;;;10.00;99.90;;;;;;4998398;28;20178;-89
2022/02/02 23:10:29;;;;;;;14.63;10.00;;;10.00;99.90;;;;;;4998955;28;20175;-86
2022/02/02 23:12:57;;;;;;;14.47;10.17;;;10.20;99.90;;;;;;4983211;28;20322;-87
2022/02/02 23:15:39;;;;;;;15.10;10.73;;;10.00;99.90;;;;;;5011168;28;20247;-87
2022/02/02 23:18:14;;;;;;;11.93;9.27;;;9.90;99.90;;;;;;5020446;28;20155;-89
2022/02/02 23:20:41;;;;;;;13.73;9.87;;;9.90;99.90;;;;;;5019400;28;20181;-87
2022/02/02 23:23:07;;;;;;;14.63;8.87;;;9.90;99.90;;;;;;5020576;28;20182;-87
2022/02/02 23:25:35;;;;;;;13.10;9.10;;;9.90;99.90;;;;;;5021558;28;20270;-88
2022/02/02 23:28:18;;;;;;;14.37;9.30;;;9.80;99.90;;;;;;5020450;28;20159;-86
2022/02/02 23:31:12;;;;;;;10.70;8.73;;;9.80;99.90;;;;;;5022162;28;20218;-87
2022/02/02 23:34:06;;;;;;;15.47;9.00;;;9.70;99.90;;;;;;5020660;28;20199;-88
2022/02/02 23:36:32;;;;;;;14.57;7.90;;;9.70;99.90;;;;;;5014116;28;20170;-89
2022/02/02 23:39:04;;;;;;;12.03;7.50;;;9.80;99.90;;;;;;5004258;28;20578;-89
2022/02/02 23:42:18;;;;;;;9.90;6.73;;;9.80;99.90;;;;;;5008315;28;20179;-89
2022/02/02 23:44:37;;;;;;;9.87;6.43;;;9.70;99.90;;;;;;5005022;28;20175;-87
2022/02/02 23:47:05;;;;;;;12.33;7.10;;;9.60;99.90;;;;;;5001957;28;20260;-89
2022/02/02 23:49:39;;;;;;;10.23;6.40;;;9.60;99.90;;;;;;5003290;28;20183;-89
2022/02/02 23:52:07;;;;;;;9.83;5.70;;;9.60;99.90;;;;;;5007632;28;20197;-87
2022/02/02 23:54:34;;;;;;;10.23;5.77;;;9.70;99.90;;;;;;5021320;28;20210;-85
